VHHH/HKG METAR and TAF weather

Enter ICAO airport designator
Station Type Date Time Source
VHHH METAR 2021/06/22 23:00 UTC NOAA

VHHH 222300Z 24006KT 9999 FEW020 SCT040 28/23 Q1006 NOSIG


Station Type Date Time Source
VHHH Decoded METAR 2021/06/22 23:00 UTC NOAA

Hong Kong Inter-National Airport, Hong Kong (VHHH) 22-20N 114-11E 24M
Jun 22, 2021 - 07:00 PM EDT / 2021.06.22 2300 UTC
Wind: from the WSW (240 degrees) at 7 MPH (6 KT):0
Visibility: greater than 7 mile(s):0
Sky conditions: partly cloudy
Temperature: 82 F (28 C)
Dew Point: 73 F (23 C)
Relative Humidity: 74%
Pressure (altimeter): 29.71 in. Hg (1006 hPa)
ob: VHHH 222300Z 24006KT 9999 FEW020 SCT040 28/23 Q1006 NOSIG
cycle: 23

Station Type Date Time Source
VHHH TAF 2021/06/22 18:21 UTC NOAA

TAF TAF VHHH 221700Z 2218/2324 22010KT 9999 FEW015 SCT025 TX29/2306Z TN24/2223Z TN25/2322Z
TEMPO 2220/2302 32020G30KT 1500 TSRA +SHRA FEW010 SCT020CB BKN040
TEMPO 2302/2309 VRB15G25KT 2000 +SHRA FEW010CB SCT020
TEMPO 2317/2322 3000 SHRA FEW010CB SCT020
TEMPO 2322/2324 32020G30KT 3000 -TSRA SHRA FEW010 SCT020CB BKN040

Example: see airport list